sensor_id;sensor_type;location;lat;lon;timestamp;P1;durP1;ratioP1;P2;durP2;ratioP2
31692;SDS011;37436;53.230;6.614;2022-08-19T00:01:25;18.55;;;10.35;;
31692;SDS011;37436;53.230;6.614;2022-08-19T00:03:52;28.73;;;10.93;;
31692;SDS011;37436;53.230;6.614;2022-08-19T00:06:18;22.83;;;10.27;;
31692;SDS011;37436;53.230;6.614;2022-08-19T00:08:51;20.75;;;10.48;;
31692;SDS011;37436;53.230;6.614;2022-08-19T00:11:17;19.63;;;10.68;;
31692;SDS011;37436;53.230;6.614;2022-08-19T00:13:43;22.00;;;10.35;;
31692;SDS011;37436;53.230;6.614;2022-08-19T00:16:13;23.35;;;10.57;;
31692;SDS011;37436;53.230;6.614;2022-08-19T00:18:39;22.92;;;10.63;;
31692;SDS011;37436;53.230;6.614;2022-08-19T00:21:05;20.10;;;10.50;;
31692;SDS011;37436;53.230;6.614;2022-08-19T00:23:34;23.52;;;10.48;;
31692;SDS011;37436;53.230;6.614;2022-08-19T00:26:01;18.50;;;9.82;;
31692;SDS011;37436;53.230;6.614;2022-08-19T00:28:27;22.15;;;10.68;;
31692;SDS011;37436;53.230;6.614;2022-08-19T00:30:53;33.63;;;11.00;;
31692;SDS011;37436;53.230;6.614;2022-08-19T00:33:20;20.38;;;10.57;;
31692;SDS011;37436;53.230;6.614;2022-08-19T00:35:46;23.20;;;9.95;;
31692;SDS011;37436;53.230;6.614;2022-08-19T00:38:12;27.02;;;10.73;;
31692;SDS011;37436;53.230;6.614;2022-08-19T00:40:39;22.58;;;11.02;;
31692;SDS011;37436;53.230;6.614;2022-08-19T00:43:12;20.13;;;10.07;;
31692;SDS011;37436;53.230;6.614;2022-08-19T00:45:38;19.52;;;10.30;;
31692;SDS011;37436;53.230;6.614;2022-08-19T00:48:07;23.27;;;10.82;;
31692;SDS011;37436;53.230;6.614;2022-08-19T00:50:33;22.67;;;10.20;;
31692;SDS011;37436;53.230;6.614;2022-08-19T00:52:59;18.10;;;9.65;;
31692;SDS011;37436;53.230;6.614;2022-08-19T00:55:29;23.90;;;11.13;;
31692;SDS011;37436;53.230;6.614;2022-08-19T00:57:57;16.95;;;9.48;;
31692;SDS011;37436;53.230;6.614;2022-08-19T01:00:24;19.40;;;10.50;;
31692;SDS011;37436;53.230;6.614;2022-08-19T01:02:51;18.45;;;9.07;;
31692;SDS011;37436;53.230;6.614;2022-08-19T01:05:20;26.83;;;9.10;;
31692;SDS011;37436;53.230;6.614;2022-08-19T01:07:47;26.73;;;9.48;;
31692;SDS011;37436;53.230;6.614;2022-08-19T01:10:14;18.13;;;9.02;;
31692;SDS011;37436;53.230;6.614;2022-08-19T01:12:43;17.90;;;9.23;;
31692;SDS011;37436;53.230;6.614;2022-08-19T01:15:11;19.45;;;9.73;;
31692;SDS011;37436;53.230;6.614;2022-08-19T01:17:38;18.25;;;8.52;;
31692;SDS011;37436;53.230;6.614;2022-08-19T01:20:04;22.73;;;9.75;;
31692;SDS011;37436;53.230;6.614;2022-08-19T01:24:58;19.10;;;9.07;;
31692;SDS011;37436;53.230;6.614;2022-08-19T01:27:24;15.30;;;9.50;;
31692;SDS011;37436;53.230;6.614;2022-08-19T01:29:50;17.75;;;10.30;;
31692;SDS011;37436;53.230;6.614;2022-08-19T01:32:16;18.50;;;9.45;;
31692;SDS011;37436;53.230;6.614;2022-08-19T01:34:44;22.98;;;9.38;;
31692;SDS011;37436;53.230;6.614;2022-08-19T01:37:12;19.05;;;9.68;;
31692;SDS011;37436;53.230;6.614;2022-08-19T01:39:39;27.20;;;11.02;;
31692;SDS011;37436;53.230;6.614;2022-08-19T01:42:06;18.67;;;9.60;;
31692;SDS011;37436;53.230;6.614;2022-08-19T01:44:34;24.65;;;11.27;;
31692;SDS011;37436;53.230;6.614;2022-08-19T01:47:01;22.55;;;11.38;;
31692;SDS011;37436;53.230;6.614;2022-08-19T01:49:30;17.98;;;11.00;;
31692;SDS011;37436;53.230;6.614;2022-08-19T01:51:56;22.27;;;11.57;;
31692;SDS011;37436;53.230;6.614;2022-08-19T01:54:23;23.33;;;10.75;;
31692;SDS011;37436;53.230;6.614;2022-08-19T01:56:50;29.10;;;9.95;;
31692;SDS011;37436;53.230;6.614;2022-08-19T01:59:19;20.90;;;9.50;;
31692;SDS011;37436;53.230;6.614;2022-08-19T02:01:46;17.98;;;9.48;;
31692;SDS011;37436;53.230;6.614;2022-08-19T02:04:12;22.00;;;11.02;;
31692;SDS011;37436;53.230;6.614;2022-08-19T02:06:39;23.23;;;10.55;;
31692;SDS011;37436;53.230;6.614;2022-08-19T02:09:05;26.75;;;11.07;;
31692;SDS011;37436;53.230;6.614;2022-08-19T02:11:33;23.48;;;10.45;;
31692;SDS011;37436;53.230;6.614;2022-08-19T02:14:01;26.85;;;10.80;;
31692;SDS011;37436;53.230;6.614;2022-08-19T02:16:27;24.35;;;11.50;;
31692;SDS011;37436;53.230;6.614;2022-08-19T02:18:54;27.45;;;11.63;;
31692;SDS011;37436;53.230;6.614;2022-08-19T02:21:21;20.90;;;11.25;;
31692;SDS011;37436;53.230;6.614;2022-08-19T02:23:47;33.55;;;11.57;;
31692;SDS011;37436;53.230;6.614;2022-08-19T02:26:13;22.38;;;10.20;;
31692;SDS011;37436;53.230;6.614;2022-08-19T02:28:40;21.58;;;10.90;;
31692;SDS011;37436;53.230;6.614;2022-08-19T02:31:11;21.38;;;10.18;;
31692;SDS011;37436;53.230;6.614;2022-08-19T02:33:37;23.58;;;10.65;;
31692;SDS011;37436;53.230;6.614;2022-08-19T02:36:04;17.58;;;10.13;;
31692;SDS011;37436;53.230;6.614;2022-08-19T02:38:30;25.25;;;10.73;;
31692;SDS011;37436;53.230;6.614;2022-08-19T02:41:19;22.13;;;10.35;;
31692;SDS011;37436;53.230;6.614;2022-08-19T02:43:43;29.05;;;11.60;;
31692;SDS011;37436;53.230;6.614;2022-08-19T02:46:17;22.77;;;10.70;;
31692;SDS011;37436;53.230;6.614;2022-08-19T02:51:21;18.75;;;10.40;;
31692;SDS011;37436;53.230;6.614;2022-08-19T02:53:47;28.45;;;11.90;;
31692;SDS011;37436;53.230;6.614;2022-08-19T02:56:13;21.70;;;11.15;;
31692;SDS011;37436;53.230;6.614;2022-08-19T02:58:40;27.42;;;12.45;;
31692;SDS011;37436;53.230;6.614;2022-08-19T03:01:06;26.08;;;11.82;;
31692;SDS011;37436;53.230;6.614;2022-08-19T03:03:33;23.25;;;11.40;;
31692;SDS011;37436;53.230;6.614;2022-08-19T03:06:17;23.65;;;10.80;;
31692;SDS011;37436;53.230;6.614;2022-08-19T03:08:44;27.67;;;12.18;;
31692;SDS011;37436;53.230;6.614;2022-08-19T03:11:29;28.50;;;12.48;;
31692;SDS011;37436;53.230;6.614;2022-08-19T03:13:57;25.15;;;11.52;;
31692;SDS011;37436;53.230;6.614;2022-08-19T03:16:24;27.85;;;11.52;;
31692;SDS011;37436;53.230;6.614;2022-08-19T03:18:51;26.52;;;11.98;;
31692;SDS011;37436;53.230;6.614;2022-08-19T03:21:18;24.88;;;11.32;;
31692;SDS011;37436;53.230;6.614;2022-08-19T03:23:45;29.73;;;13.93;;
31692;SDS011;37436;53.230;6.614;2022-08-19T03:26:11;28.80;;;14.07;;
31692;SDS011;37436;53.230;6.614;2022-08-19T03:28:39;29.20;;;13.63;;
31692;SDS011;37436;53.230;6.614;2022-08-19T03:31:07;37.25;;;14.70;;
31692;SDS011;37436;53.230;6.614;2022-08-19T03:33:34;27.42;;;12.43;;
31692;SDS011;37436;53.230;6.614;2022-08-19T03:36:01;29.08;;;12.55;;
31692;SDS011;37436;53.230;6.614;2022-08-19T03:38:28;25.70;;;11.93;;
31692;SDS011;37436;53.230;6.614;2022-08-19T03:40:54;29.73;;;12.75;;
31692;SDS011;37436;53.230;6.614;2022-08-19T03:43:20;25.30;;;12.13;;
31692;SDS011;37436;53.230;6.614;2022-08-19T03:45:46;26.45;;;11.93;;
31692;SDS011;37436;53.230;6.614;2022-08-19T03:48:13;19.80;;;10.93;;
31692;SDS011;37436;53.230;6.614;2022-08-19T03:50:41;25.95;;;11.45;;
31692;SDS011;37436;53.230;6.614;2022-08-19T03:53:07;20.17;;;10.35;;
31692;SDS011;37436;53.230;6.614;2022-08-19T03:55:34;23.65;;;11.18;;
31692;SDS011;37436;53.230;6.614;2022-08-19T03:58:04;23.00;;;11.35;;
31692;SDS011;37436;53.230;6.614;2022-08-19T04:00:31;17.85;;;9.52;;
31692;SDS011;37436;53.230;6.614;2022-08-19T04:02:58;19.42;;;9.10;;
31692;SDS011;37436;53.230;6.614;2022-08-19T04:05:26;22.38;;;9.10;;
31692;SDS011;37436;53.230;6.614;2022-08-19T04:07:53;16.58;;;8.95;;
31692;SDS011;37436;53.230;6.614;2022-08-19T04:10:22;16.77;;;8.07;;
31692;SDS011;37436;53.230;6.614;2022-08-19T04:12:49;13.73;;;8.07;;
31692;SDS011;37436;53.230;6.614;2022-08-19T04:15:15;20.77;;;9.25;;
31692;SDS011;37436;53.230;6.614;2022-08-19T04:17:41;18.88;;;9.82;;
31692;SDS011;37436;53.230;6.614;2022-08-19T04:20:07;16.60;;;9.05;;
31692;SDS011;37436;53.230;6.614;2022-08-19T04:22:33;21.60;;;10.27;;
31692;SDS011;37436;53.230;6.614;2022-08-19T04:24:59;25.83;;;11.55;;
31692;SDS011;37436;53.230;6.614;2022-08-19T04:27:25;20.02;;;9.73;;
31692;SDS011;37436;53.230;6.614;2022-08-19T04:29:51;20.38;;;10.48;;
31692;SDS011;37436;53.230;6.614;2022-08-19T04:32:18;19.33;;;9.38;;
31692;SDS011;37436;53.230;6.614;2022-08-19T04:34:44;19.83;;;8.82;;
31692;SDS011;37436;53.230;6.614;2022-08-19T04:37:10;19.83;;;8.70;;
31692;SDS011;37436;53.230;6.614;2022-08-19T04:39:38;17.85;;;7.95;;
31692;SDS011;37436;53.230;6.614;2022-08-19T04:42:23;16.75;;;8.15;;
31692;SDS011;37436;53.230;6.614;2022-08-19T04:45:04;18.25;;;7.53;;
31692;SDS011;37436;53.230;6.614;2022-08-19T04:47:30;17.83;;;8.63;;
31692;SDS011;37436;53.230;6.614;2022-08-19T04:49:57;17.38;;;8.05;;
31692;SDS011;37436;53.230;6.614;2022-08-19T04:52:23;18.15;;;8.25;;
31692;SDS011;37436;53.230;6.614;2022-08-19T04:54:49;18.42;;;8.05;;
31692;SDS011;37436;53.230;6.614;2022-08-19T04:57:15;18.63;;;8.55;;
31692;SDS011;37436;53.230;6.614;2022-08-19T04:59:41;32.65;;;10.90;;
31692;SDS011;37436;53.230;6.614;2022-08-19T05:02:08;30.92;;;13.98;;
31692;SDS011;37436;53.230;6.614;2022-08-19T05:04:34;42.05;;;14.98;;
31692;SDS011;37436;53.230;6.614;2022-08-19T05:07:03;38.58;;;13.50;;
31692;SDS011;37436;53.230;6.614;2022-08-19T05:09:29;26.13;;;13.25;;
31692;SDS011;37436;53.230;6.614;2022-08-19T05:11:56;30.70;;;12.43;;
31692;SDS011;37436;53.230;6.614;2022-08-19T05:14:22;31.75;;;12.82;;
31692;SDS011;37436;53.230;6.614;2022-08-19T05:16:48;25.42;;;12.07;;
31692;SDS011;37436;53.230;6.614;2022-08-19T05:19:14;22.77;;;11.45;;
31692;SDS011;37436;53.230;6.614;2022-08-19T05:21:59;29.38;;;13.52;;
31692;SDS011;37436;53.230;6.614;2022-08-19T05:24:44;28.35;;;11.23;;
31692;SDS011;37436;53.230;6.614;2022-08-19T05:27:10;24.70;;;11.20;;
31692;SDS011;37436;53.230;6.614;2022-08-19T05:29:36;21.80;;;11.38;;
31692;SDS011;37436;53.230;6.614;2022-08-19T05:32:03;21.80;;;11.02;;
31692;SDS011;37436;53.230;6.614;2022-08-19T05:34:30;21.77;;;11.68;;
31692;SDS011;37436;53.230;6.614;2022-08-19T05:36:58;21.23;;;10.80;;
31692;SDS011;37436;53.230;6.614;2022-08-19T05:39:32;20.40;;;10.65;;
31692;SDS011;37436;53.230;6.614;2022-08-19T05:42:09;18.33;;;10.40;;
31692;SDS011;37436;53.230;6.614;2022-08-19T05:44:37;20.48;;;9.98;;
31692;SDS011;37436;53.230;6.614;2022-08-19T05:47:04;24.77;;;10.50;;
31692;SDS011;37436;53.230;6.614;2022-08-19T05:49:32;25.52;;;10.98;;
31692;SDS011;37436;53.230;6.614;2022-08-19T05:51:58;18.65;;;9.88;;
31692;SDS011;37436;53.230;6.614;2022-08-19T05:54:24;23.50;;;10.48;;
31692;SDS011;37436;53.230;6.614;2022-08-19T05:56:51;23.63;;;9.70;;
31692;SDS011;37436;53.230;6.614;2022-08-19T05:59:18;19.10;;;10.35;;
31692;SDS011;37436;53.230;6.614;2022-08-19T06:01:46;16.45;;;9.77;;
31692;SDS011;37436;53.230;6.614;2022-08-19T06:04:16;17.05;;;9.30;;
31692;SDS011;37436;53.230;6.614;2022-08-19T06:06:43;17.00;;;9.32;;
31692;SDS011;37436;53.230;6.614;2022-08-19T06:09:09;15.15;;;8.43;;
31692;SDS011;37436;53.230;6.614;2022-08-19T06:11:43;14.75;;;9.35;;
31692;SDS011;37436;53.230;6.614;2022-08-19T06:14:11;15.82;;;7.30;;
31692;SDS011;37436;53.230;6.614;2022-08-19T06:16:38;17.77;;;8.40;;
31692;SDS011;37436;53.230;6.614;2022-08-19T06:19:08;16.75;;;8.13;;
31692;SDS011;37436;53.230;6.614;2022-08-19T06:21:36;13.60;;;7.32;;
31692;SDS011;37436;53.230;6.614;2022-08-19T06:24:03;10.18;;;6.80;;
31692;SDS011;37436;53.230;6.614;2022-08-19T06:26:29;11.13;;;7.63;;
31692;SDS011;37436;53.230;6.614;2022-08-19T06:28:55;15.65;;;6.72;;
31692;SDS011;37436;53.230;6.614;2022-08-19T06:31:26;17.48;;;7.55;;
31692;SDS011;37436;53.230;6.614;2022-08-19T06:33:52;12.32;;;6.15;;
31692;SDS011;37436;53.230;6.614;2022-08-19T06:36:26;10.88;;;6.65;;
31692;SDS011;37436;53.230;6.614;2022-08-19T06:38:57;13.35;;;7.43;;
31692;SDS011;37436;53.230;6.614;2022-08-19T06:41:24;13.65;;;7.10;;
31692;SDS011;37436;53.230;6.614;2022-08-19T06:43:51;11.00;;;6.43;;
31692;SDS011;37436;53.230;6.614;2022-08-19T06:46:17;11.30;;;7.40;;
31692;SDS011;37436;53.230;6.614;2022-08-19T06:48:45;10.82;;;6.25;;
31692;SDS011;37436;53.230;6.614;2022-08-19T06:51:11;14.38;;;6.93;;
31692;SDS011;37436;53.230;6.614;2022-08-19T06:53:40;13.15;;;5.90;;
31692;SDS011;37436;53.230;6.614;2022-08-19T06:56:12;9.40;;;6.07;;
31692;SDS011;37436;53.230;6.614;2022-08-19T06:58:38;13.05;;;6.82;;
31692;SDS011;37436;53.230;6.614;2022-08-19T07:01:05;8.52;;;5.72;;
31692;SDS011;37436;53.230;6.614;2022-08-19T07:03:32;12.18;;;5.75;;
31692;SDS011;37436;53.230;6.614;2022-08-19T07:06:05;11.07;;;5.95;;
31692;SDS011;37436;53.230;6.614;2022-08-19T07:08:32;14.05;;;5.88;;
31692;SDS011;37436;53.230;6.614;2022-08-19T07:10:58;13.40;;;6.35;;
31692;SDS011;37436;53.230;6.614;2022-08-19T07:13:25;13.00;;;6.28;;
31692;SDS011;37436;53.230;6.614;2022-08-19T07:15:51;9.85;;;6.50;;
31692;SDS011;37436;53.230;6.614;2022-08-19T07:18:18;13.80;;;6.75;;
31692;SDS011;37436;53.230;6.614;2022-08-19T07:20:45;15.20;;;6.78;;
31692;SDS011;37436;53.230;6.614;2022-08-19T07:23:11;12.05;;;5.97;;
31692;SDS011;37436;53.230;6.614;2022-08-19T07:25:37;11.95;;;5.97;;
31692;SDS011;37436;53.230;6.614;2022-08-19T07:28:04;9.20;;;6.43;;
31692;SDS011;37436;53.230;6.614;2022-08-19T07:30:30;9.57;;;5.45;;
31692;SDS011;37436;53.230;6.614;2022-08-19T07:32:56;10.75;;;6.40;;
31692;SDS011;37436;53.230;6.614;2022-08-19T07:35:22;8.15;;;5.72;;
31692;SDS011;37436;53.230;6.614;2022-08-19T07:37:49;9.95;;;6.18;;
31692;SDS011;37436;53.230;6.614;2022-08-19T07:40:17;7.50;;;6.07;;
31692;SDS011;37436;53.230;6.614;2022-08-19T07:42:43;8.65;;;5.90;;
31692;SDS011;37436;53.230;6.614;2022-08-19T07:45:09;9.43;;;5.85;;
31692;SDS011;37436;53.230;6.614;2022-08-19T07:47:35;11.27;;;6.40;;
31692;SDS011;37436;53.230;6.614;2022-08-19T07:50:03;9.18;;;6.15;;
31692;SDS011;37436;53.230;6.614;2022-08-19T07:52:29;10.75;;;5.95;;
31692;SDS011;37436;53.230;6.614;2022-08-19T07:54:55;11.68;;;6.57;;
31692;SDS011;37436;53.230;6.614;2022-08-19T07:57:22;9.57;;;5.78;;
31692;SDS011;37436;53.230;6.614;2022-08-19T07:59:48;16.10;;;6.05;;
31692;SDS011;37436;53.230;6.614;2022-08-19T08:02:14;6.32;;;5.20;;
31692;SDS011;37436;53.230;6.614;2022-08-19T08:04:40;8.55;;;5.63;;
31692;SDS011;37436;53.230;6.614;2022-08-19T08:07:24;7.18;;;5.22;;
31692;SDS011;37436;53.230;6.614;2022-08-19T08:10:09;16.00;;;5.90;;
31692;SDS011;37436;53.230;6.614;2022-08-19T08:12:38;12.45;;;6.38;;
31692;SDS011;37436;53.230;6.614;2022-08-19T08:15:11;11.13;;;6.55;;
31692;SDS011;37436;53.230;6.614;2022-08-19T08:17:41;15.10;;;8.45;;
31692;SDS011;37436;53.230;6.614;2022-08-19T08:20:07;10.55;;;6.22;;
31692;SDS011;37436;53.230;6.614;2022-08-19T08:22:34;9.23;;;6.18;;
31692;SDS011;37436;53.230;6.614;2022-08-19T08:25:20;9.57;;;5.80;;
31692;SDS011;37436;53.230;6.614;2022-08-19T08:27:47;7.43;;;5.45;;
31692;SDS011;37436;53.230;6.614;2022-08-19T08:30:24;10.00;;;4.97;;
31692;SDS011;37436;53.230;6.614;2022-08-19T08:32:51;8.35;;;4.93;;
31692;SDS011;37436;53.230;6.614;2022-08-19T08:35:18;7.78;;;4.70;;
31692;SDS011;37436;53.230;6.614;2022-08-19T08:37:45;5.07;;;4.20;;
31692;SDS011;37436;53.230;6.614;2022-08-19T08:40:19;6.07;;;3.58;;
31692;SDS011;37436;53.230;6.614;2022-08-19T08:42:52;7.13;;;4.13;;
31692;SDS011;37436;53.230;6.614;2022-08-19T08:45:19;8.05;;;3.72;;
31692;SDS011;37436;53.230;6.614;2022-08-19T08:47:47;4.80;;;4.32;;
31692;SDS011;37436;53.230;6.614;2022-08-19T08:52:43;7.38;;;3.90;;
31692;SDS011;37436;53.230;6.614;2022-08-19T08:55:14;6.47;;;4.97;;
31692;SDS011;37436;53.230;6.614;2022-08-19T08:57:44;9.90;;;4.40;;
31692;SDS011;37436;53.230;6.614;2022-08-19T09:00:21;7.25;;;4.57;;
31692;SDS011;37436;53.230;6.614;2022-08-19T09:02:47;12.15;;;6.30;;
31692;SDS011;37436;53.230;6.614;2022-08-19T09:05:14;9.63;;;5.90;;
31692;SDS011;37436;53.230;6.614;2022-08-19T09:10:22;8.57;;;5.65;;
31692;SDS011;37436;53.230;6.614;2022-08-19T09:15:35;7.97;;;5.63;;
31692;SDS011;37436;53.230;6.614;2022-08-19T09:18:03;9.98;;;5.45;;
31692;SDS011;37436;53.230;6.614;2022-08-19T09:20:32;9.68;;;6.30;;
31692;SDS011;37436;53.230;6.614;2022-08-19T09:22:58;8.15;;;5.78;;
31692;SDS011;37436;53.230;6.614;2022-08-19T09:25:24;9.73;;;6.72;;
31692;SDS011;37436;53.230;6.614;2022-08-19T09:27:51;7.78;;;5.03;;
31692;SDS011;37436;53.230;6.614;2022-08-19T09:30:28;7.78;;;5.90;;
31692;SDS011;37436;53.230;6.614;2022-08-19T09:32:55;8.52;;;5.35;;
31692;SDS011;37436;53.230;6.614;2022-08-19T09:35:22;8.35;;;6.13;;
31692;SDS011;37436;53.230;6.614;2022-08-19T09:37:48;8.88;;;6.03;;
31692;SDS011;37436;53.230;6.614;2022-08-19T09:40:15;7.10;;;5.72;;
31692;SDS011;37436;53.230;6.614;2022-08-19T09:42:41;8.90;;;5.50;;
31692;SDS011;37436;53.230;6.614;2022-08-19T09:45:08;7.82;;;6.18;;
31692;SDS011;37436;53.230;6.614;2022-08-19T09:47:34;8.50;;;6.95;;
31692;SDS011;37436;53.230;6.614;2022-08-19T09:50:04;8.45;;;6.60;;
31692;SDS011;37436;53.230;6.614;2022-08-19T09:52:30;9.07;;;5.38;;
31692;SDS011;37436;53.230;6.614;2022-08-19T09:54:56;8.23;;;6.53;;
31692;SDS011;37436;53.230;6.614;2022-08-19T09:57:22;9.98;;;6.47;;
31692;SDS011;37436;53.230;6.614;2022-08-19T09:59:48;8.80;;;6.85;;
31692;SDS011;37436;53.230;6.614;2022-08-19T10:02:14;12.00;;;7.63;;
31692;SDS011;37436;53.230;6.614;2022-08-19T10:04:40;9.10;;;7.65;;
31692;SDS011;37436;53.230;6.614;2022-08-19T10:07:25;14.50;;;6.97;;
31692;SDS011;37436;53.230;6.614;2022-08-19T10:09:51;14.40;;;7.10;;
31692;SDS011;37436;53.230;6.614;2022-08-19T10:12:17;9.57;;;6.70;;
31692;SDS011;37436;53.230;6.614;2022-08-19T10:14:43;10.63;;;7.65;;
31692;SDS011;37436;53.230;6.614;2022-08-19T10:17:10;13.35;;;7.75;;
31692;SDS011;37436;53.230;6.614;2022-08-19T10:19:39;8.32;;;6.50;;
31692;SDS011;37436;53.230;6.614;2022-08-19T10:22:05;9.57;;;6.97;;
31692;SDS011;37436;53.230;6.614;2022-08-19T10:24:32;10.65;;;6.68;;
31692;SDS011;37436;53.230;6.614;2022-08-19T10:26:59;7.72;;;6.40;;
31692;SDS011;37436;53.230;6.614;2022-08-19T10:29:26;10.35;;;5.90;;
31692;SDS011;37436;53.230;6.614;2022-08-19T10:31:54;8.00;;;6.63;;
31692;SDS011;37436;53.230;6.614;2022-08-19T10:34:22;10.48;;;7.70;;
31692;SDS011;37436;53.230;6.614;2022-08-19T10:36:49;9.43;;;7.78;;
31692;SDS011;37436;53.230;6.614;2022-08-19T10:39:21;10.57;;;7.10;;
31692;SDS011;37436;53.230;6.614;2022-08-19T10:41:48;11.13;;;6.75;;
31692;SDS011;37436;53.230;6.614;2022-08-19T10:44:14;10.32;;;7.28;;
31692;SDS011;37436;53.230;6.614;2022-08-19T10:46:43;8.60;;;6.60;;
31692;SDS011;37436;53.230;6.614;2022-08-19T10:49:11;8.10;;;6.82;;
31692;SDS011;37436;53.230;6.614;2022-08-19T10:51:38;8.73;;;7.00;;
31692;SDS011;37436;53.230;6.614;2022-08-19T10:54:23;8.98;;;6.40;;
31692;SDS011;37436;53.230;6.614;2022-08-19T10:57:09;10.25;;;7.47;;
31692;SDS011;37436;53.230;6.614;2022-08-19T10:59:35;14.40;;;8.93;;
31692;SDS011;37436;53.230;6.614;2022-08-19T11:02:02;10.82;;;8.10;;
31692;SDS011;37436;53.230;6.614;2022-08-19T11:04:36;11.73;;;8.60;;
31692;SDS011;37436;53.230;6.614;2022-08-19T11:07:03;10.55;;;7.60;;
31692;SDS011;37436;53.230;6.614;2022-08-19T11:09:30;11.50;;;8.52;;
31692;SDS011;37436;53.230;6.614;2022-08-19T11:11:56;11.30;;;8.68;;
31692;SDS011;37436;53.230;6.614;2022-08-19T11:14:22;10.75;;;7.00;;
31692;SDS011;37436;53.230;6.614;2022-08-19T11:16:50;14.65;;;8.32;;
31692;SDS011;37436;53.230;6.614;2022-08-19T11:19:18;9.25;;;6.90;;
31692;SDS011;37436;53.230;6.614;2022-08-19T11:21:48;9.02;;;6.95;;
31692;SDS011;37436;53.230;6.614;2022-08-19T11:24:17;12.13;;;8.40;;
31692;SDS011;37436;53.230;6.614;2022-08-19T11:26:46;11.20;;;8.40;;
31692;SDS011;37436;53.230;6.614;2022-08-19T11:29:14;12.27;;;8.55;;
31692;SDS011;37436;53.230;6.614;2022-08-19T11:31:42;9.70;;;7.65;;
31692;SDS011;37436;53.230;6.614;2022-08-19T11:34:10;8.48;;;6.85;;
31692;SDS011;37436;53.230;6.614;2022-08-19T11:36:37;10.07;;;7.90;;
31692;SDS011;37436;53.230;6.614;2022-08-19T11:39:05;10.40;;;6.75;;
31692;SDS011;37436;53.230;6.614;2022-08-19T11:41:31;10.05;;;7.82;;
31692;SDS011;37436;53.230;6.614;2022-08-19T11:43:57;8.45;;;7.13;;
31692;SDS011;37436;53.230;6.614;2022-08-19T11:46:37;10.25;;;7.95;;
31692;SDS011;37436;53.230;6.614;2022-08-19T11:49:04;14.85;;;7.75;;
31692;SDS011;37436;53.230;6.614;2022-08-19T11:51:32;8.30;;;7.22;;
31692;SDS011;37436;53.230;6.614;2022-08-19T11:53:58;12.50;;;7.60;;
31692;SDS011;37436;53.230;6.614;2022-08-19T11:56:26;10.60;;;8.60;;
31692;SDS011;37436;53.230;6.614;2022-08-19T11:58:52;11.88;;;7.32;;
31692;SDS011;37436;53.230;6.614;2022-08-19T12:01:19;7.70;;;6.55;;
31692;SDS011;37436;53.230;6.614;2022-08-19T12:03:46;12.98;;;8.52;;
31692;SDS011;37436;53.230;6.614;2022-08-19T12:06:14;10.57;;;8.30;;
31692;SDS011;37436;53.230;6.614;2022-08-19T12:08:40;9.00;;;7.32;;
31692;SDS011;37436;53.230;6.614;2022-08-19T12:11:08;10.77;;;8.65;;
31692;SDS011;37436;53.230;6.614;2022-08-19T12:13:35;15.57;;;9.48;;
31692;SDS011;37436;53.230;6.614;2022-08-19T12:16:06;10.35;;;8.30;;
31692;SDS011;37436;53.230;6.614;2022-08-19T12:18:33;11.30;;;9.18;;
31692;SDS011;37436;53.230;6.614;2022-08-19T12:20:59;13.45;;;9.10;;
31692;SDS011;37436;53.230;6.614;2022-08-19T12:23:25;12.63;;;8.82;;
31692;SDS011;37436;53.230;6.614;2022-08-19T12:25:51;11.30;;;8.27;;
31692;SDS011;37436;53.230;6.614;2022-08-19T12:28:21;13.05;;;8.18;;
31692;SDS011;37436;53.230;6.614;2022-08-19T12:30:48;12.75;;;8.02;;
31692;SDS011;37436;53.230;6.614;2022-08-19T12:33:18;10.45;;;8.63;;
31692;SDS011;37436;53.230;6.614;2022-08-19T12:35:45;14.82;;;8.75;;
31692;SDS011;37436;53.230;6.614;2022-08-19T12:38:12;11.02;;;7.82;;
31692;SDS011;37436;53.230;6.614;2022-08-19T12:40:38;8.23;;;6.05;;
31692;SDS011;37436;53.230;6.614;2022-08-19T12:43:07;13.80;;;8.73;;
31692;SDS011;37436;53.230;6.614;2022-08-19T12:45:34;12.38;;;8.32;;
31692;SDS011;37436;53.230;6.614;2022-08-19T12:48:00;15.73;;;8.40;;
31692;SDS011;37436;53.230;6.614;2022-08-19T12:50:26;11.35;;;9.02;;
31692;SDS011;37436;53.230;6.614;2022-08-19T12:52:53;10.15;;;8.40;;
31692;SDS011;37436;53.230;6.614;2022-08-19T12:55:19;10.82;;;8.70;;
31692;SDS011;37436;53.230;6.614;2022-08-19T12:57:45;12.02;;;7.70;;
31692;SDS011;37436;53.230;6.614;2022-08-19T13:00:15;13.32;;;9.18;;
31692;SDS011;37436;53.230;6.614;2022-08-19T13:02:42;14.35;;;7.95;;
31692;SDS011;37436;53.230;6.614;2022-08-19T13:05:10;17.15;;;8.57;;
31692;SDS011;37436;53.230;6.614;2022-08-19T13:07:37;7.93;;;6.60;;
31692;SDS011;37436;53.230;6.614;2022-08-19T13:10:05;14.10;;;7.78;;
31692;SDS011;37436;53.230;6.614;2022-08-19T13:12:31;9.82;;;7.70;;
31692;SDS011;37436;53.230;6.614;2022-08-19T13:14:57;18.55;;;7.68;;
31692;SDS011;37436;53.230;6.614;2022-08-19T13:17:23;13.50;;;8.32;;
31692;SDS011;37436;53.230;6.614;2022-08-19T13:19:49;10.88;;;8.18;;
31692;SDS011;37436;53.230;6.614;2022-08-19T13:22:15;12.07;;;8.23;;
31692;SDS011;37436;53.230;6.614;2022-08-19T13:24:41;14.60;;;8.35;;
31692;SDS011;37436;53.230;6.614;2022-08-19T13:27:08;12.10;;;9.68;;
31692;SDS011;37436;53.230;6.614;2022-08-19T13:29:34;14.90;;;10.48;;
31692;SDS011;37436;53.230;6.614;2022-08-19T13:32:18;17.55;;;10.82;;
31692;SDS011;37436;53.230;6.614;2022-08-19T13:35:22;16.88;;;10.07;;
31692;SDS011;37436;53.230;6.614;2022-08-19T13:37:48;15.48;;;11.07;;
31692;SDS011;37436;53.230;6.614;2022-08-19T13:40:19;21.30;;;11.73;;
31692;SDS011;37436;53.230;6.614;2022-08-19T13:42:48;23.70;;;11.93;;
31692;SDS011;37436;53.230;6.614;2022-08-19T13:45:16;15.70;;;8.52;;
31692;SDS011;37436;53.230;6.614;2022-08-19T13:47:45;15.10;;;8.65;;
31692;SDS011;37436;53.230;6.614;2022-08-19T13:50:12;15.13;;;9.82;;
31692;SDS011;37436;53.230;6.614;2022-08-19T13:52:38;15.93;;;7.95;;
31692;SDS011;37436;53.230;6.614;2022-08-19T13:55:05;19.00;;;10.80;;
31692;SDS011;37436;53.230;6.614;2022-08-19T13:57:32;15.43;;;10.77;;
31692;SDS011;37436;53.230;6.614;2022-08-19T13:59:58;19.90;;;10.32;;
31692;SDS011;37436;53.230;6.614;2022-08-19T14:02:24;14.07;;;9.65;;
31692;SDS011;37436;53.230;6.614;2022-08-19T14:04:51;14.35;;;9.38;;
31692;SDS011;37436;53.230;6.614;2022-08-19T14:07:17;19.77;;;10.05;;
31692;SDS011;37436;53.230;6.614;2022-08-19T14:09:43;18.83;;;8.50;;
31692;SDS011;37436;53.230;6.614;2022-08-19T14:12:09;19.98;;;8.43;;
31692;SDS011;37436;53.230;6.614;2022-08-19T14:14:36;16.75;;;8.75;;
31692;SDS011;37436;53.230;6.614;2022-08-19T14:17:05;13.75;;;7.43;;
31692;SDS011;37436;53.230;6.614;2022-08-19T14:19:31;11.55;;;7.07;;
31692;SDS011;37436;53.230;6.614;2022-08-19T14:21:57;9.27;;;6.35;;
31692;SDS011;37436;53.230;6.614;2022-08-19T14:24:23;11.48;;;6.22;;
31692;SDS011;37436;53.230;6.614;2022-08-19T14:26:50;13.02;;;8.63;;
31692;SDS011;37436;53.230;6.614;2022-08-19T14:29:16;10.25;;;6.80;;
31692;SDS011;37436;53.230;6.614;2022-08-19T14:31:42;8.57;;;5.70;;
31692;SDS011;37436;53.230;6.614;2022-08-19T14:34:08;17.05;;;6.25;;
31692;SDS011;37436;53.230;6.614;2022-08-19T14:36:35;12.05;;;5.97;;
31692;SDS011;37436;53.230;6.614;2022-08-19T14:39:02;14.68;;;7.90;;
31692;SDS011;37436;53.230;6.614;2022-08-19T14:41:28;16.27;;;8.32;;
31692;SDS011;37436;53.230;6.614;2022-08-19T14:43:55;16.67;;;9.35;;
31692;SDS011;37436;53.230;6.614;2022-08-19T14:46:23;18.17;;;9.70;;
31692;SDS011;37436;53.230;6.614;2022-08-19T14:48:50;16.27;;;9.93;;
31692;SDS011;37436;53.230;6.614;2022-08-19T14:51:16;16.52;;;8.80;;